Time;durP1;ratioP1;P1;durP2;ratioP2;P2;SDS_P1;SDS_P2;PMS_P1;PMS_P2;Temp;Humidity;BMP_temperature;BMP_pressure;BME280_temperature;BME280_humidity;BME280_pressure;Samples;Min_cycle;Max_cycle;Signal;HPM_P1;HPM_P2
2021/11/26 00:01:33;;;;;;;129.00;45.55;;;4.70;99.90;;;;;;5116673;28;20480;-70
2021/11/26 00:04:00;;;;;;;131.60;44.95;;;4.60;99.90;;;;;;5115970;28;20019;-70
2021/11/26 00:06:27;;;;;;;135.68;44.15;;;4.60;99.90;;;;;;5116527;28;20099;-70
2021/11/26 00:08:54;;;;;;;130.75;43.63;;;4.70;99.90;;;;;;5116434;28;20035;-71
2021/11/26 00:11:19;;;;;;;124.95;43.03;;;4.70;99.90;;;;;;5115259;28;20469;-70
2021/11/26 00:13:51;;;;;;;144.20;44.90;;;4.70;99.90;;;;;;5116913;28;20016;-70
2021/11/26 00:16:18;;;;;;;128.23;41.97;;;4.70;99.90;;;;;;5115216;28;20024;-70
2021/11/26 00:18:49;;;;;;;124.32;42.70;;;4.70;99.90;;;;;;5114900;28;20071;-70
2021/11/26 00:21:15;;;;;;;124.40;43.40;;;4.70;99.90;;;;;;5116795;28;20027;-70
2021/11/26 00:23:40;;;;;;;133.65;43.10;;;4.70;99.90;;;;;;5115874;28;20111;-70
2021/11/26 00:26:06;;;;;;;125.13;41.55;;;4.70;99.90;;;;;;5116117;28;20072;-70
2021/11/26 00:28:32;;;;;;;128.70;42.35;;;4.60;99.90;;;;;;5114697;28;20048;-71
2021/11/26 00:30:57;;;;;;;138.40;43.15;;;4.60;99.90;;;;;;5116586;28;20019;-70
2021/11/26 00:33:23;;;;;;;134.60;42.20;;;4.60;99.90;;;;;;5115982;28;20027;-70
2021/11/26 00:35:50;;;;;;;119.57;41.28;;;4.60;99.90;;;;;;5114718;28;20024;-70
2021/11/26 00:38:16;;;;;;;136.68;43.10;;;4.60;99.90;;;;;;5115578;28;20098;-70
2021/11/26 00:40:43;;;;;;;134.30;42.65;;;4.60;99.90;;;;;;5114553;28;20504;-70
2021/11/26 00:43:08;;;;;;;133.90;43.30;;;4.60;99.90;;;;;;5116389;28;20513;-70
2021/11/26 00:45:34;;;;;;;110.90;39.75;;;4.60;99.90;;;;;;5116337;28;20023;-70
2021/11/26 00:48:00;;;;;;;129.95;42.05;;;4.60;99.90;;;;;;5116194;28;20033;-70
2021/11/26 00:50:26;;;;;;;132.60;43.03;;;4.60;99.90;;;;;;5115922;28;20077;-70
2021/11/26 00:52:51;;;;;;;122.95;42.25;;;4.60;99.90;;;;;;5114722;28;20357;-70
2021/11/26 00:55:17;;;;;;;135.63;43.47;;;4.50;99.90;;;;;;5116117;28;20073;-70
2021/11/26 00:57:43;;;;;;;121.95;42.35;;;4.60;99.90;;;;;;5114209;28;20023;-70
2021/11/26 01:00:12;;;;;;;125.82;42.60;;;4.60;99.90;;;;;;5115496;28;20070;-70
2021/11/26 01:02:39;;;;;;;120.03;41.28;;;4.60;99.90;;;;;;5114845;28;20028;-70
2021/11/26 01:05:06;;;;;;;124.72;40.05;;;4.60;99.90;;;;;;5115941;28;20360;-70
2021/11/26 01:07:32;;;;;;;121.38;40.97;;;4.60;99.90;;;;;;5115911;28;20030;-70
2021/11/26 01:09:58;;;;;;;114.93;39.97;;;4.60;99.90;;;;;;5115523;28;20024;-70
2021/11/26 01:12:23;;;;;;;116.55;39.90;;;4.60;99.90;;;;;;5096123;28;20106;-70
2021/11/26 01:14:49;;;;;;;126.90;40.95;;;4.60;99.90;;;;;;5115418;28;20028;-70
2021/11/26 01:17:15;;;;;;;116.55;37.83;;;4.60;99.90;;;;;;5115665;28;20219;-70
2021/11/26 01:19:40;;;;;;;122.72;41.63;;;4.60;99.90;;;;;;5115412;28;20034;-70
2021/11/26 01:22:07;;;;;;;119.28;40.47;;;4.60;99.90;;;;;;5079974;28;20038;-70
2021/11/26 01:24:32;;;;;;;120.32;41.92;;;4.60;99.90;;;;;;5115289;28;20460;-70
2021/11/26 01:26:59;;;;;;;107.97;38.35;;;4.60;99.90;;;;;;5114352;28;20039;-70
2021/11/26 01:29:25;;;;;;;118.22;39.55;;;4.60;99.90;;;;;;5114545;28;20047;-70
2021/11/26 01:31:50;;;;;;;127.38;40.75;;;4.50;99.90;;;;;;5114860;28;20023;-70
2021/11/26 01:34:16;;;;;;;115.55;41.05;;;4.60;99.90;;;;;;5113573;28;20110;-70
2021/11/26 01:36:42;;;;;;;119.07;40.08;;;4.50;99.90;;;;;;5113873;28;20088;-70
2021/11/26 01:39:08;;;;;;;117.13;41.42;;;4.60;99.90;;;;;;5113486;28;20027;-70
2021/11/26 01:41:35;;;;;;;108.53;39.92;;;4.60;99.90;;;;;;5113807;28;20492;-70
2021/11/26 01:44:02;;;;;;;124.70;41.15;;;4.60;99.90;;;;;;5114055;28;20022;-70
2021/11/26 01:46:28;;;;;;;110.22;39.63;;;4.60;99.90;;;;;;5113704;28;20106;-70
2021/11/26 01:48:54;;;;;;;112.25;38.75;;;4.60;99.90;;;;;;5113556;28;20106;-70
2021/11/26 01:51:19;;;;;;;107.78;38.67;;;4.60;99.90;;;;;;5114783;28;20103;-70
2021/11/26 01:53:45;;;;;;;108.72;39.05;;;4.60;99.90;;;;;;5113576;28;20031;-70
2021/11/26 01:56:11;;;;;;;105.15;37.72;;;4.60;99.90;;;;;;5114716;28;20027;-70
2021/11/26 01:58:38;;;;;;;105.57;38.17;;;4.60;99.90;;;;;;5114917;28;20026;-70
2021/11/26 02:01:04;;;;;;;101.50;36.35;;;4.60;99.90;;;;;;5114370;28;20055;-70
2021/11/26 02:03:31;;;;;;;110.13;38.63;;;4.60;99.90;;;;;;5096628;28;20375;-70
2021/11/26 02:05:56;;;;;;;101.30;35.25;;;4.60;99.90;;;;;;5114870;28;20068;-70
2021/11/26 02:08:22;;;;;;;106.72;36.22;;;4.60;99.90;;;;;;5112897;28;20027;-70
2021/11/26 02:10:48;;;;;;;101.50;35.80;;;4.50;99.90;;;;;;5114471;28;20100;-70
2021/11/26 02:13:13;;;;;;;90.28;32.80;;;4.50;99.90;;;;;;5113284;28;20023;-70
2021/11/26 02:15:44;;;;;;;98.60;33.70;;;4.60;99.90;;;;;;5114703;28;20023;-70
2021/11/26 02:18:12;;;;;;;92.43;34.58;;;4.50;99.90;;;;;;5113157;28;20361;-70
2021/11/26 02:20:38;;;;;;;90.22;33.00;;;4.50;99.90;;;;;;5114658;28;20038;-70
2021/11/26 02:23:04;;;;;;;94.22;34.33;;;4.50;99.90;;;;;;5114354;28;20016;-70
2021/11/26 02:25:30;;;;;;;90.10;33.78;;;4.50;99.90;;;;;;5114179;28;20370;-70
2021/11/26 02:27:59;;;;;;;92.72;33.47;;;4.60;99.90;;;;;;5114223;28;20028;-70
2021/11/26 02:30:25;;;;;;;94.70;32.75;;;4.60;99.90;;;;;;5113895;28;20044;-70
2021/11/26 02:32:56;;;;;;;94.30;33.45;;;4.50;99.90;;;;;;5113286;28;20020;-70
2021/11/26 02:35:23;;;;;;;78.70;30.02;;;4.60;99.90;;;;;;5112687;28;20044;-70
2021/11/26 02:37:49;;;;;;;92.97;32.40;;;4.60;99.90;;;;;;5114505;28;20051;-70
2021/11/26 02:40:18;;;;;;;90.25;33.47;;;4.60;99.90;;;;;;5114425;28;20096;-70
2021/11/26 02:42:43;;;;;;;81.70;31.15;;;4.60;99.90;;;;;;5114447;28;20035;-70
2021/11/26 02:45:12;;;;;;;82.93;31.58;;;4.60;99.90;;;;;;5095707;28;20024;-70
2021/11/26 02:47:39;;;;;;;80.13;29.95;;;4.60;99.90;;;;;;5114117;28;20472;-70
2021/11/26 02:50:07;;;;;;;87.32;31.77;;;4.60;99.90;;;;;;5114028;28;20023;-70
2021/11/26 02:52:35;;;;;;;83.13;30.05;;;4.60;99.90;;;;;;5114081;28;20015;-70
2021/11/26 02:55:00;;;;;;;88.80;31.70;;;4.60;99.90;;;;;;5114305;28;20448;-71
2021/11/26 02:57:26;;;;;;;79.70;30.23;;;4.60;99.90;;;;;;5096033;28;20020;-70
2021/11/26 02:59:52;;;;;;;73.35;28.13;;;4.60;99.90;;;;;;5114050;28;20487;-70
2021/11/26 03:02:18;;;;;;;94.55;32.20;;;4.60;99.90;;;;;;5114295;28;20024;-70
2021/11/26 03:04:44;;;;;;;97.40;30.98;;;4.60;99.90;;;;;;5113947;28;20130;-70
2021/11/26 03:07:10;;;;;;;77.13;29.00;;;4.60;99.90;;;;;;5113946;28;20372;-70
2021/11/26 03:09:37;;;;;;;87.20;29.85;;;4.60;99.90;;;;;;5113843;28;20031;-70
2021/11/26 03:12:04;;;;;;;86.38;29.20;;;4.60;99.90;;;;;;5112717;28;20102;-70
2021/11/26 03:14:29;;;;;;;83.43;28.77;;;4.60;99.90;;;;;;5095576;28;20073;-70
2021/11/26 03:16:55;;;;;;;80.10;28.40;;;4.60;99.90;;;;;;5112661;28;20023;-70
2021/11/26 03:19:21;;;;;;;82.03;29.02;;;4.60;99.90;;;;;;5112284;28;20468;-70
2021/11/26 03:21:46;;;;;;;88.40;29.58;;;4.60;99.90;;;;;;5112627;28;20028;-70
2021/11/26 03:24:13;;;;;;;88.53;29.33;;;4.60;99.90;;;;;;5114040;28;20027;-70
2021/11/26 03:26:38;;;;;;;81.05;28.33;;;4.60;99.90;;;;;;5114024;28;20023;-70
2021/11/26 03:29:04;;;;;;;83.95;29.65;;;4.60;99.90;;;;;;5112201;28;20047;-69
2021/11/26 03:31:30;;;;;;;82.65;28.75;;;4.60;99.90;;;;;;5112559;28;20023;-70
2021/11/26 03:33:55;;;;;;;84.80;29.92;;;4.60;99.90;;;;;;5095724;28;20368;-70
2021/11/26 03:36:21;;;;;;;87.43;29.45;;;4.60;99.90;;;;;;5113750;28;20023;-70
2021/11/26 03:38:46;;;;;;;80.30;28.17;;;4.60;99.90;;;;;;5115837;28;20034;-70
2021/11/26 03:41:12;;;;;;;79.43;29.35;;;4.60;99.90;;;;;;5099208;28;20488;-70
2021/11/26 03:43:38;;;;;;;74.30;28.67;;;4.60;99.90;;;;;;5116084;28;20464;-70
2021/11/26 03:46:04;;;;;;;81.93;29.38;;;4.70;99.90;;;;;;5116009;28;20080;-71
2021/11/26 03:48:30;;;;;;;74.68;28.02;;;4.60;99.90;;;;;;5115572;28;20062;-70
2021/11/26 03:50:56;;;;;;;75.45;27.60;;;4.70;99.90;;;;;;5117153;28;20044;-70
2021/11/26 03:53:21;;;;;;;83.43;28.90;;;4.70;99.90;;;;;;5117384;28;20019;-69
2021/11/26 03:55:47;;;;;;;71.25;27.40;;;4.70;99.90;;;;;;5099387;28;20020;-70
2021/11/26 03:58:13;;;;;;;73.18;25.90;;;4.70;99.90;;;;;;5115458;28;20028;-70
2021/11/26 04:00:39;;;;;;;80.00;28.25;;;4.70;99.90;;;;;;5117245;28;20024;-71
2021/11/26 04:03:05;;;;;;;71.90;26.75;;;4.70;99.90;;;;;;5115702;28;20031;-70
2021/11/26 04:05:30;;;;;;;82.97;30.70;;;4.70;99.90;;;;;;5116836;28;20023;-70
2021/11/26 04:07:56;;;;;;;78.65;29.30;;;4.70;99.90;;;;;;5116699;28;20051;-70
2021/11/26 04:10:22;;;;;;;79.43;27.70;;;4.70;99.90;;;;;;5116522;27;20030;-70
2021/11/26 04:12:49;;;;;;;76.20;27.10;;;4.80;99.90;;;;;;5115176;28;20069;-70
2021/11/26 04:15:16;;;;;;;83.18;29.70;;;4.80;99.90;;;;;;5115513;28;20012;-71
2021/11/26 04:17:45;;;;;;;77.43;28.08;;;4.80;99.90;;;;;;5115914;28;20024;-71
2021/11/26 04:20:11;;;;;;;76.03;28.35;;;4.80;99.90;;;;;;5116277;28;20031;-70
2021/11/26 04:22:38;;;;;;;85.90;30.42;;;4.80;99.90;;;;;;5116522;28;20500;-71
2021/11/26 04:25:06;;;;;;;79.47;28.33;;;4.80;99.90;;;;;;5115269;28;20464;-71
2021/11/26 04:27:32;;;;;;;81.03;30.38;;;4.80;99.90;;;;;;5115280;28;20451;-71
2021/11/26 04:29:57;;;;;;;78.80;28.00;;;4.80;99.90;;;;;;5115950;28;20071;-70
2021/11/26 04:32:25;;;;;;;79.30;29.50;;;4.80;99.90;;;;;;5115413;28;20068;-70
2021/11/26 04:34:51;;;;;;;75.03;29.80;;;4.80;99.90;;;;;;5098119;28;20081;-70
2021/11/26 04:37:17;;;;;;;82.47;29.73;;;4.80;99.90;;;;;;5116541;28;20479;-71
2021/11/26 04:39:43;;;;;;;78.32;28.95;;;4.80;99.90;;;;;;5114638;28;20028;-70
2021/11/26 04:42:09;;;;;;;76.72;29.73;;;4.90;99.90;;;;;;5114568;28;20069;-70
2021/11/26 04:44:34;;;;;;;81.70;28.73;;;4.90;99.90;;;;;;5115187;28;20037;-70
2021/11/26 04:47:00;;;;;;;77.55;29.65;;;4.90;99.90;;;;;;5097984;28;20479;-70
2021/11/26 04:49:26;;;;;;;78.88;30.23;;;4.80;99.90;;;;;;5115898;28;20031;-70
2021/11/26 04:51:51;;;;;;;73.90;28.63;;;4.90;99.90;;;;;;5114747;28;20107;-70
2021/11/26 04:54:17;;;;;;;82.95;31.45;;;4.90;99.90;;;;;;5116164;28;20019;-70
2021/11/26 04:56:43;;;;;;;90.22;30.92;;;4.90;99.90;;;;;;5114668;28;20024;-70
2021/11/26 04:59:08;;;;;;;77.88;30.65;;;4.90;99.90;;;;;;5114292;28;20039;-71
2021/11/26 05:01:34;;;;;;;85.53;31.83;;;4.90;99.90;;;;;;5116038;28;20063;-70
2021/11/26 05:03:59;;;;;;;88.88;33.95;;;4.90;99.90;;;;;;5115952;28;20363;-70
2021/11/26 05:06:25;;;;;;;79.22;30.75;;;4.90;99.90;;;;;;5114483;28;20035;-70
2021/11/26 05:08:51;;;;;;;88.68;34.58;;;4.90;99.90;;;;;;5114362;28;20035;-70
2021/11/26 05:11:17;;;;;;;85.15;34.08;;;4.90;99.90;;;;;;5115273;28;20463;-70
2021/11/26 05:13:44;;;;;;;92.03;32.67;;;4.90;99.90;;;;;;5115749;28;20031;-70
2021/11/26 05:16:13;;;;;;;87.90;35.47;;;4.90;99.90;;;;;;5115772;28;20019;-70
2021/11/26 05:18:40;;;;;;;89.18;34.35;;;4.90;99.90;;;;;;5113878;28;20122;-70
2021/11/26 05:21:06;;;;;;;84.05;34.75;;;4.90;99.90;;;;;;5114195;28;20063;-70
2021/11/26 05:23:45;;;;;;;97.45;35.42;;;4.90;99.90;;;;;;5079967;28;20186;-70
2021/11/26 05:26:12;;;;;;;84.70;33.42;;;4.90;99.90;;;;;;5097712;28;20368;-70
2021/11/26 05:28:37;;;;;;;83.47;33.72;;;4.90;99.90;;;;;;5097175;28;20051;-71
2021/11/26 05:31:03;;;;;;;101.97;35.17;;;4.90;99.90;;;;;;5114020;28;20031;-70
2021/11/26 05:33:29;;;;;;;88.47;34.60;;;4.90;99.90;;;;;;5115407;28;20472;-70
2021/11/26 05:35:54;;;;;;;82.15;34.05;;;4.90;99.90;;;;;;5113597;28;20028;-70
2021/11/26 05:38:20;;;;;;;85.43;35.10;;;4.90;99.90;;;;;;5115332;28;20024;-70
2021/11/26 05:40:46;;;;;;;98.95;38.28;;;4.80;99.90;;;;;;5096530;28;20023;-70
2021/11/26 05:43:13;;;;;;;96.78;37.28;;;4.80;99.90;;;;;;5115261;28;20027;-70
2021/11/26 05:45:38;;;;;;;97.38;37.67;;;4.80;99.90;;;;;;5079531;28;20036;-70
2021/11/26 05:48:04;;;;;;;88.07;34.88;;;4.80;99.90;;;;;;5096421;28;20050;-70
2021/11/26 05:50:30;;;;;;;93.65;34.67;;;4.80;99.90;;;;;;5115133;28;20027;-70
2021/11/26 05:52:56;;;;;;;91.90;35.67;;;4.70;99.90;;;;;;5113641;28;20026;-70
2021/11/26 05:55:24;;;;;;;100.15;34.83;;;4.70;99.90;;;;;;5113887;28;20020;-70
2021/11/26 05:58:00;;;;;;;87.82;34.85;;;4.70;99.90;;;;;;5113592;28;20023;-70
2021/11/26 06:00:28;;;;;;;89.95;35.17;;;4.70;99.90;;;;;;5113175;28;20022;-70
2021/11/26 06:02:54;;;;;;;88.80;36.13;;;4.70;99.90;;;;;;5096107;28;20361;-69
2021/11/26 06:05:20;;;;;;;92.50;36.72;;;4.70;99.90;;;;;;5114828;28;20015;-70
2021/11/26 06:07:46;;;;;;;92.03;36.00;;;4.70;99.90;;;;;;5114906;28;20020;-70
2021/11/26 06:10:14;;;;;;;83.60;36.25;;;4.70;99.90;;;;;;5114597;28;20031;-69
2021/11/26 06:12:41;;;;;;;90.75;37.08;;;4.70;99.90;;;;;;5114890;28;20023;-70
2021/11/26 06:15:08;;;;;;;93.70;38.33;;;4.70;99.90;;;;;;5114491;28;20015;-72
2021/11/26 06:17:34;;;;;;;101.43;38.70;;;4.70;99.90;;;;;;5113530;28;20020;-71
2021/11/26 06:20:00;;;;;;;91.80;39.83;;;4.70;99.90;;;;;;5114656;28;20028;-70
2021/11/26 06:22:25;;;;;;;88.65;38.58;;;4.70;99.90;;;;;;5114361;28;20023;-70
2021/11/26 06:24:51;;;;;;;102.20;39.92;;;4.70;99.90;;;;;;5114608;28;20027;-70
2021/11/26 06:27:17;;;;;;;94.72;40.42;;;4.70;99.90;;;;;;5113428;28;20456;-70
2021/11/26 06:29:43;;;;;;;98.38;41.20;;;4.70;99.90;;;;;;5112460;28;20051;-70
2021/11/26 06:32:10;;;;;;;98.57;39.70;;;4.70;99.90;;;;;;5096270;28;20027;-70
2021/11/26 06:34:36;;;;;;;92.18;39.50;;;4.70;99.90;;;;;;5113341;28;20079;-70
2021/11/26 06:37:02;;;;;;;101.80;40.28;;;4.70;99.90;;;;;;5114233;28;20016;-70
2021/11/26 06:39:28;;;;;;;91.40;38.88;;;4.60;99.90;;;;;;5114175;28;20031;-70
2021/11/26 06:41:53;;;;;;;100.18;38.72;;;4.60;99.90;;;;;;5112605;28;20472;-70
2021/11/26 06:44:19;;;;;;;99.45;39.72;;;4.60;99.90;;;;;;5113227;28;20471;-70
2021/11/26 06:46:44;;;;;;;101.90;39.47;;;4.70;99.90;;;;;;5113795;28;20460;-70
2021/11/26 06:49:10;;;;;;;97.90;40.15;;;4.60;99.90;;;;;;5114317;28;20031;-70
2021/11/26 06:51:35;;;;;;;96.38;40.00;;;4.60;99.90;;;;;;5113991;28;20042;-70
2021/11/26 06:54:01;;;;;;;96.80;39.50;;;4.60;99.90;;;;;;5114337;28;20047;-70
2021/11/26 06:56:27;;;;;;;96.57;38.33;;;4.60;99.90;;;;;;5114290;28;20024;-70
2021/11/26 06:58:57;;;;;;;87.50;38.00;;;4.60;99.90;;;;;;5112403;28;20506;-70
2021/11/26 07:01:22;;;;;;;85.70;37.85;;;4.60;99.90;;;;;;5112839;28;20483;-70
2021/11/26 07:03:48;;;;;;;92.82;38.60;;;4.60;99.90;;;;;;5114191;28;20051;-70
2021/11/26 07:06:13;;;;;;;81.63;37.83;;;4.60;99.90;;;;;;5113651;28;20410;-70
2021/11/26 07:08:39;;;;;;;86.50;38.78;;;4.60;99.90;;;;;;5112676;28;20036;-70
2021/11/26 07:11:04;;;;;;;82.50;36.13;;;4.60;99.90;;;;;;5113644;28;20027;-70
2021/11/26 07:13:30;;;;;;;82.07;36.67;;;4.50;99.90;;;;;;5118113;28;20019;-70
2021/11/26 07:15:56;;;;;;;78.53;36.95;;;4.60;99.90;;;;;;5117998;28;20456;-70
2021/11/26 07:18:21;;;;;;;89.75;36.47;;;4.50;99.90;;;;;;5117727;28;20464;-70
2021/11/26 07:20:47;;;;;;;81.30;36.92;;;4.50;99.90;;;;;;5117422;28;20035;-69
2021/11/26 07:23:12;;;;;;;79.10;35.75;;;4.50;99.90;;;;;;5117383;28;20065;-69
2021/11/26 07:25:38;;;;;;;82.80;36.85;;;4.50;99.90;;;;;;5116393;28;20054;-70
2021/11/26 07:28:04;;;;;;;84.50;37.00;;;4.50;99.90;;;;;;5117431;28;20031;-70
2021/11/26 07:30:30;;;;;;;73.47;34.72;;;4.50;99.90;;;;;;5117092;28;20036;-70
2021/11/26 07:32:56;;;;;;;75.82;34.58;;;4.50;99.90;;;;;;5117472;28;20023;-69
2021/11/26 07:35:21;;;;;;;73.82;32.75;;;4.50;99.90;;;;;;5117456;28;20408;-69
2021/11/26 07:37:47;;;;;;;72.85;33.42;;;4.50;99.90;;;;;;5099373;28;20024;-69
2021/11/26 07:40:13;;;;;;;66.88;32.08;;;4.40;99.90;;;;;;5117540;28;20106;-70
2021/11/26 07:42:40;;;;;;;66.30;31.20;;;4.40;99.90;;;;;;5117274;28;20020;-70
2021/11/26 07:45:07;;;;;;;60.10;29.88;;;4.40;99.90;;;;;;5101709;28;20433;-70
2021/11/26 07:47:33;;;;;;;54.08;29.08;;;4.40;99.90;;;;;;5094672;28;20103;-70
2021/11/26 07:49:58;;;;;;;54.25;27.23;;;4.40;99.90;;;;;;5074253;28;20120;-70
2021/11/26 07:52:24;;;;;;;54.88;28.90;;;4.40;99.90;;;;;;5074746;28;20074;-70
2021/11/26 07:54:50;;;;;;;51.55;27.77;;;4.40;99.90;;;;;;5080510;28;20028;-70
2021/11/26 07:57:15;;;;;;;57.05;27.38;;;4.40;99.90;;;;;;5096546;28;20024;-70
2021/11/26 07:59:41;;;;;;;48.20;25.77;;;4.40;99.90;;;;;;5094754;28;20492;-70
2021/11/26 08:02:07;;;;;;;53.38;27.38;;;4.30;99.90;;;;;;5094901;28;20366;-70
2021/11/26 08:04:32;;;;;;;55.67;27.85;;;4.30;99.90;;;;;;5096137;28;20024;-70
2021/11/26 08:06:58;;;;;;;58.10;28.45;;;4.30;99.90;;;;;;5095757;28;20024;-70
2021/11/26 08:09:24;;;;;;;55.97;29.15;;;4.40;99.90;;;;;;5096466;28;20099;-70
2021/11/26 08:11:51;;;;;;;55.17;26.70;;;4.40;99.90;;;;;;5095654;28;20028;-70
2021/11/26 08:14:18;;;;;;;52.22;27.25;;;4.30;99.90;;;;;;5095042;28;20012;-70
2021/11/26 08:16:44;;;;;;;54.38;27.40;;;4.40;99.90;;;;;;5095703;28;20028;-70
2021/11/26 08:19:11;;;;;;;60.25;27.48;;;4.40;99.90;;;;;;5077629;28;20024;-70
2021/11/26 08:21:38;;;;;;;52.72;26.35;;;4.40;99.90;;;;;;5095252;28;20020;-70
2021/11/26 08:24:07;;;;;;;49.90;26.13;;;4.30;99.90;;;;;;5094714;28;20024;-70
2021/11/26 08:26:34;;;;;;;54.50;26.70;;;4.30;99.90;;;;;;5094648;28;20481;-70
2021/11/26 08:29:02;;;;;;;52.05;26.23;;;4.40;99.90;;;;;;5093687;28;20052;-70
2021/11/26 08:31:27;;;;;;;44.97;24.15;;;4.40;99.90;;;;;;5094345;28;20426;-70
2021/11/26 08:33:53;;;;;;;43.88;21.65;;;4.40;99.90;;;;;;5095496;28;20059;-70
2021/11/26 08:36:19;;;;;;;37.97;19.15;;;4.40;99.90;;;;;;5076853;28;20016;-70
2021/11/26 08:38:44;;;;;;;32.10;17.67;;;4.40;99.90;;;;;;5094821;28;20039;-70
2021/11/26 08:41:10;;;;;;;35.30;20.02;;;4.40;99.90;;;;;;5094835;28;20181;-70
2021/11/26 08:43:37;;;;;;;35.78;17.48;;;4.40;99.90;;;;;;5095343;28;20020;-70
2021/11/26 08:46:02;;;;;;;28.38;16.65;;;4.30;99.90;;;;;;5107783;28;20058;-71
2021/11/26 08:48:28;;;;;;;26.63;16.30;;;4.30;99.90;;;;;;5095494;28;20071;-70
2021/11/26 08:50:53;;;;;;;26.50;15.25;;;4.30;99.90;;;;;;5095054;28;20024;-70
2021/11/26 08:53:21;;;;;;;25.75;15.52;;;4.20;99.90;;;;;;5076971;28;20020;-70
2021/11/26 08:55:50;;;;;;;22.45;13.77;;;4.10;99.90;;;;;;5093994;28;20024;-70
2021/11/26 08:58:16;;;;;;;24.48;14.60;;;4.10;99.90;;;;;;5103356;28;20377;-70
2021/11/26 09:00:42;;;;;;;28.58;14.52;;;4.10;99.90;;;;;;5114125;28;20023;-70
2021/11/26 09:03:08;;;;;;;23.98;14.00;;;4.10;99.90;;;;;;5114064;28;20020;-70
2021/11/26 09:05:35;;;;;;;25.50;14.32;;;4.10;99.90;;;;;;5114400;28;20106;-70
2021/11/26 09:08:02;;;;;;;26.17;14.77;;;4.10;99.90;;;;;;5098285;28;20028;-70
2021/11/26 09:10:30;;;;;;;24.77;14.88;;;4.10;99.90;;;;;;5076469;28;20392;-70
2021/11/26 09:12:56;;;;;;;29.50;14.45;;;4.10;99.90;;;;;;5075127;28;20021;-70
2021/11/26 09:15:23;;;;;;;26.70;14.45;;;4.20;99.90;;;;;;5074725;28;20457;-70
2021/11/26 09:17:49;;;;;;;27.75;13.48;;;4.20;99.90;;;;;;5102273;28;20114;-70
2021/11/26 09:20:16;;;;;;;25.70;13.95;;;4.20;99.90;;;;;;5113523;28;20490;-71
2021/11/26 09:22:42;;;;;;;26.30;14.25;;;4.20;99.90;;;;;;5101294;28;20036;-70
2021/11/26 09:25:08;;;;;;;24.88;14.07;;;4.20;99.90;;;;;;5094467;28;20099;-70
2021/11/26 09:27:34;;;;;;;23.95;14.73;;;4.30;99.90;;;;;;5084042;28;20122;-70
2021/11/26 09:30:00;;;;;;;23.70;13.48;;;4.30;99.90;;;;;;5102067;28;20119;-70
2021/11/26 09:32:26;;;;;;;21.52;12.02;;;4.30;99.90;;;;;;5108666;28;20051;-70
2021/11/26 09:34:51;;;;;;;23.48;12.07;;;4.30;99.90;;;;;;5099676;28;20043;-70
2021/11/26 09:37:18;;;;;;;19.80;12.60;;;4.30;99.90;;;;;;5088955;28;20025;-70
2021/11/26 09:39:43;;;;;;;22.85;13.02;;;4.30;99.90;;;;;;5097515;28;20531;-70
2021/11/26 09:42:09;;;;;;;20.85;12.23;;;4.30;99.90;;;;;;5103671;28;20067;-70
2021/11/26 09:44:36;;;;;;;23.30;13.45;;;4.30;99.90;;;;;;5113610;28;20468;-71
2021/11/26 09:47:02;;;;;;;20.33;12.25;;;4.30;99.90;;;;;;5099856;28;20039;-70
2021/11/26 09:49:29;;;;;;;20.45;11.50;;;4.20;99.90;;;;;;5093078;28;20024;-70
2021/11/26 09:51:55;;;;;;;22.63;12.43;;;4.30;99.90;;;;;;5107829;28;20024;-70
2021/11/26 09:54:21;;;;;;;19.15;11.45;;;4.20;99.90;;;;;;5096133;28;20023;-71
2021/11/26 09:56:47;;;;;;;22.35;12.18;;;4.20;99.90;;;;;;5083223;28;20024;-70
2021/11/26 09:59:13;;;;;;;16.25;10.93;;;4.20;99.90;;;;;;5091003;28;20495;-70
2021/11/26 10:01:38;;;;;;;19.05;11.75;;;4.20;99.90;;;;;;5094811;28;20111;-70
2021/11/26 10:04:14;;;;;;;23.92;12.10;;;4.20;99.90;;;;;;5076205;28;20042;-71
2021/11/26 10:06:41;;;;;;;18.40;10.75;;;4.20;99.90;;;;;;5094167;28;20426;-70
2021/11/26 10:09:12;;;;;;;19.95;11.57;;;4.20;99.90;;;;;;5114351;28;20019;-65
2021/11/26 10:11:50;;;;;;;20.45;11.43;;;4.20;99.90;;;;;;5111242;28;20027;-66
2021/11/26 10:14:26;;;;;;;20.35;10.25;;;4.20;99.90;;;;;;5106618;28;20019;-65
2021/11/26 10:17:02;;;;;;;18.33;10.38;;;4.20;99.90;;;;;;5108171;28;20069;-66
2021/11/26 10:19:33;;;;;;;20.02;10.30;;;4.30;99.90;;;;;;5112622;28;20028;-65
2021/11/26 10:21:59;;;;;;;18.73;9.98;;;4.30;99.90;;;;;;5111065;28;20024;-65
2021/11/26 10:24:24;;;;;;;15.77;9.32;;;4.30;99.90;;;;;;5094042;28;20114;-66
2021/11/26 10:26:53;;;;;;;17.80;9.57;;;4.40;99.90;;;;;;5095779;28;20024;-66
2021/11/26 10:29:38;;;;;;;15.73;9.40;;;4.40;99.90;;;;;;5093475;28;20051;-66
2021/11/26 10:32:07;;;;;;;16.73;9.27;;;4.50;99.90;;;;;;5112375;28;20031;-66
2021/11/26 10:34:33;;;;;;;17.02;10.43;;;4.50;99.90;;;;;;5095932;28;20012;-66
2021/11/26 10:36:58;;;;;;;15.88;10.15;;;4.60;99.90;;;;;;5092082;28;20047;-66
2021/11/26 10:39:25;;;;;;;17.73;10.10;;;4.60;99.90;;;;;;5094372;28;20499;-66
2021/11/26 10:41:53;;;;;;;22.75;11.15;;;4.60;99.90;;;;;;5092864;28;20020;-66
2021/11/26 10:44:28;;;;;;;16.55;11.23;;;4.60;99.90;;;;;;5093328;28;20020;-66
2021/11/26 10:47:12;;;;;;;20.92;10.93;;;4.60;99.90;;;;;;5080479;28;20032;-66
2021/11/26 10:58:15;;;;;;;22.15;11.95;;;4.70;99.90;;;;;;5113203;28;20511;-66
2021/11/26 11:00:40;;;;;;;19.83;11.63;;;4.70;99.90;;;;;;5121173;28;20026;-66
2021/11/26 11:03:06;;;;;;;22.65;11.90;;;4.70;99.90;;;;;;5111285;28;20111;-66
2021/11/26 11:05:38;;;;;;;22.60;11.75;;;4.70;99.90;;;;;;5093673;28;20028;-66
2021/11/26 11:08:16;;;;;;;21.00;12.23;;;4.70;99.90;;;;;;5090175;28;20020;-66
2021/11/26 11:10:41;;;;;;;21.67;11.95;;;4.70;99.90;;;;;;5109979;28;20431;-66
2021/11/26 11:13:14;;;;;;;21.98;11.57;;;4.80;99.90;;;;;;5109693;28;20028;-64
2021/11/26 11:15:41;;;;;;;19.15;11.10;;;4.80;99.90;;;;;;5110949;28;20023;-64
2021/11/26 11:18:08;;;;;;;25.13;11.93;;;4.90;99.90;;;;;;5110603;28;20019;-66
2021/11/26 11:20:35;;;;;;;23.48;12.13;;;4.90;99.90;;;;;;5110080;28;20027;-65
2021/11/26 11:23:01;;;;;;;31.00;12.95;;;4.90;99.90;;;;;;5111000;28;20128;-65
2021/11/26 11:25:28;;;;;;;19.17;11.63;;;5.00;99.90;;;;;;5111832;28;20062;-68
2021/11/26 11:27:57;;;;;;;21.67;10.70;;;5.00;99.90;;;;;;5119613;28;20024;-67
2021/11/26 11:30:24;;;;;;;26.15;11.52;;;5.00;99.90;;;;;;5110674;28;20020;-67
2021/11/26 11:32:50;;;;;;;21.98;11.10;;;5.00;99.90;;;;;;5109582;28;20066;-67
2021/11/26 11:35:16;;;;;;;24.95;11.40;;;5.00;99.90;;;;;;5108870;28;20073;-67
2021/11/26 11:37:42;;;;;;;24.63;11.60;;;5.00;99.90;;;;;;5110610;28;20469;-67
2021/11/26 11:40:09;;;;;;;22.90;10.05;;;5.00;99.90;;;;;;5110715;28;20027;-66
2021/11/26 11:42:40;;;;;;;25.92;11.55;;;5.00;99.90;;;;;;5111028;28;20016;-66
2021/11/26 11:45:17;;;;;;;23.30;11.75;;;5.00;99.90;;;;;;5110022;28;20173;-66
2021/11/26 11:47:54;;;;;;;20.35;10.20;;;5.00;99.90;;;;;;5120055;28;20023;-66
2021/11/26 11:50:25;;;;;;;20.77;9.15;;;5.00;99.90;;;;;;5110576;28;20023;-66
2021/11/26 11:52:57;;;;;;;22.30;9.90;;;5.10;99.90;;;;;;5109758;28;20396;-67
2021/11/26 11:55:29;;;;;;;24.58;9.45;;;5.00;99.90;;;;;;5109647;28;20081;-66
2021/11/26 11:58:23;;;;;;;23.35;10.80;;;5.00;99.90;;;;;;5110541;28;20108;-67
2021/11/26 12:00:52;;;;;;;34.42;11.50;;;5.00;99.90;;;;;;5110258;28;20100;-66
2021/11/26 12:03:21;;;;;;;36.65;12.23;;;5.00;99.90;;;;;;5109593;28;20028;-66
2021/11/26 12:06:04;;;;;;;18.42;10.80;;;5.00;99.90;;;;;;5100527;28;20054;-66
2021/11/26 12:08:30;;;;;;;25.88;10.52;;;5.10;99.90;;;;;;5097125;28;20409;-66
2021/11/26 12:11:00;;;;;;;21.40;9.63;;;5.10;99.90;;;;;;5097968;28;20034;-66
2021/11/26 12:13:30;;;;;;;24.15;9.70;;;5.10;99.90;;;;;;5096730;28;20453;-66
2021/11/26 12:16:16;;;;;;;25.63;9.13;;;5.10;99.90;;;;;;5095382;28;20563;-64
2021/11/26 12:18:50;;;;;;;22.05;8.57;;;5.10;99.90;;;;;;5095663;28;20044;-66
2021/11/26 12:21:20;;;;;;;27.90;9.00;;;5.10;99.90;;;;;;5094536;28;20028;-66
2021/11/26 12:24:04;;;;;;;15.90;7.80;;;5.00;99.90;;;;;;5096131;28;20027;-66
2021/11/26 12:26:52;;;;;;;24.98;9.50;;;5.00;99.90;;;;;;5095635;28;20108;-66
2021/11/26 12:29:21;;;;;;;24.23;8.85;;;5.00;99.90;;;;;;5094444;28;20488;-66
2021/11/26 12:31:47;;;;;;;20.08;7.63;;;5.00;99.90;;;;;;5092363;28;20024;-66
2021/11/26 12:34:18;;;;;;;21.33;8.57;;;5.00;99.90;;;;;;5105584;28;20472;-66
2021/11/26 12:36:51;;;;;;;21.35;8.75;;;5.00;99.90;;;;;;5107991;28;20024;-67
2021/11/26 12:39:21;;;;;;;20.40;7.97;;;5.10;99.90;;;;;;5113705;28;20020;-66
2021/11/26 12:41:49;;;;;;;23.95;8.23;;;5.10;99.90;;;;;;5113696;28;20024;-66
2021/11/26 12:44:18;;;;;;;19.02;8.20;;;5.00;99.90;;;;;;5097985;28;20473;-66